Time;durP1;ratioP1;P1;durP2;ratioP2;P2;SDS_P1;SDS_P2;PMS_P1;PMS_P2;Temp;Humidity;BMP_temperature;BMP_pressure;BME280_temperature;BME280_humidity;BME280_pressure;Samples;Min_cycle;Max_cycle;Signal;HPM_P1;HPM_P2
2020/12/07 00:00:19;;;;;;;79.22;26.23;;;;;;;10.44;58.37;99673.72;5008173;28;20108;-71
2020/12/07 00:02:48;;;;;;;73.40;24.90;;;;;;;10.48;58.01;99675.31;5024652;28;20135;-70
2020/12/07 00:05:13;;;;;;;69.72;23.95;;;;;;;10.44;58.13;99673.72;5007033;28;20132;-72
2020/12/07 00:07:39;;;;;;;74.47;26.52;;;;;;;10.41;58.56;99670.38;5025732;28;20549;-72
2020/12/07 00:10:05;;;;;;;76.63;24.52;;;;;;;10.39;58.58;99673.84;5023567;28;20727;-70
2020/12/07 00:12:31;;;;;;;80.40;27.10;;;;;;;10.41;58.17;99667.81;5025343;28;20044;-72
2020/12/07 00:14:58;;;;;;;87.95;26.05;;;;;;;10.51;58.01;99658.88;5007120;28;20113;-71
2020/12/07 00:17:24;;;;;;;67.20;22.10;;;;;;;10.61;58.09;99662.88;5008204;28;20025;-72
2020/12/07 00:19:51;;;;;;;78.60;27.40;;;;;;;10.58;58.22;99653.50;5022413;28;20026;-71
2020/12/07 00:22:25;;;;;;;70.35;24.35;;;;;;;10.57;58.31;99650.94;5021568;28;20049;-71
2020/12/07 00:24:54;;;;;;;74.13;24.55;;;;;;;10.65;58.02;99643.81;5021712;28;20050;-72
2020/12/07 00:27:21;;;;;;;83.63;26.88;;;;;;;10.70;57.61;99646.25;5023297;28;20405;-72
2020/12/07 00:29:47;;;;;;;78.47;26.52;;;;;;;10.68;57.83;99637.69;5023996;28;20549;-71
2020/12/07 00:32:12;;;;;;;81.47;27.02;;;;;;;10.63;57.49;99644.72;5019659;28;20093;-70
2020/12/07 00:34:38;;;;;;;84.72;26.30;;;;;;;10.70;57.57;99639.34;5022880;28;20033;-73
2020/12/07 00:37:03;;;;;;;78.70;27.90;;;;;;;10.63;57.83;99629.22;5021718;28;20104;-74
2020/12/07 00:39:28;;;;;;;80.10;25.23;;;;;;;10.63;57.75;99624.06;5019693;28;20100;-73
2020/12/07 00:41:57;;;;;;;80.55;25.83;;;;;;;10.68;57.79;99611.84;5023498;28;20032;-73
2020/12/07 00:44:22;;;;;;;81.97;25.90;;;;;;;10.67;57.67;99625.66;5021841;28;20025;-73
2020/12/07 00:46:48;;;;;;;83.10;27.45;;;;;;;10.60;57.84;99619.81;5021421;28;20029;-72
2020/12/07 00:49:13;;;;;;;75.60;26.60;;;;;;;10.65;57.43;99606.75;5022257;28;20038;-72
2020/12/07 00:51:39;;;;;;;83.88;26.23;;;;;;;10.67;57.49;99617.91;5020326;28;20025;-72
2020/12/07 00:54:04;;;;;;;86.43;26.10;;;;;;;10.67;57.50;99616.19;5020170;28;20033;-71
2020/12/07 00:56:30;;;;;;;78.75;26.05;;;;;;;10.53;57.75;99624.34;5021084;28;20061;-72
2020/12/07 00:58:56;;;;;;;75.70;25.17;;;;;;;10.57;57.70;99615.59;5021750;28;20472;-73
2020/12/07 01:01:22;;;;;;;76.15;25.42;;;;;;;10.55;57.87;99617.38;5039169;28;20032;-72
2020/12/07 01:03:47;;;;;;;76.55;24.42;;;;;;;10.56;57.71;99619.09;5020494;28;20116;-72
2020/12/07 01:06:13;;;;;;;72.50;25.08;;;;;;;10.32;58.40;99612.94;5004107;28;20679;-73
2020/12/07 01:08:39;;;;;;;81.25;24.30;;;;;;;10.44;57.59;99618.63;5019213;28;20072;-73
2020/12/07 01:11:04;;;;;;;69.57;24.75;;;;;;;10.46;57.81;99609.94;5007596;28;20576;-73
2020/12/07 01:13:31;;;;;;;65.05;23.67;;;;;;;10.49;57.43;99621.91;5019311;28;20108;-72
2020/12/07 01:15:57;;;;;;;64.75;24.02;;;;;;;10.41;58.00;99616.16;5017930;28;20017;-73
2020/12/07 01:18:23;;;;;;;72.65;25.58;;;;;;;10.48;57.45;99621.06;5022483;28;20026;-73
2020/12/07 01:20:49;;;;;;;64.80;24.83;;;;;;;10.49;57.51;99617.59;5022279;28;20036;-74
2020/12/07 01:23:17;;;;;;;65.25;24.65;;;;;;;10.48;57.78;99615.91;5022798;28;20029;-74
2020/12/07 01:25:43;;;;;;;78.05;25.88;;;;;;;10.55;57.21;99621.72;5020134;28;20040;-73
2020/12/07 01:28:08;;;;;;;76.15;26.48;;;;;;;10.44;57.71;99645.28;5021522;28;20528;-71
2020/12/07 01:30:34;;;;;;;71.15;24.77;;;;;;;10.40;57.71;99641.09;5023044;28;20036;-71
2020/12/07 01:32:59;;;;;;;74.18;25.10;;;;;;;10.31;58.04;99633.63;5022040;28;20053;-71
2020/12/07 01:35:27;;;;;;;70.45;23.92;;;;;;;10.27;57.83;99647.50;5020874;28;20514;-70
2020/12/07 01:37:52;;;;;;;76.57;25.15;;;;;;;10.21;57.70;99647.69;5022993;28;20033;-71
2020/12/07 01:40:19;;;;;;;63.60;22.88;;;;;;;10.12;58.17;99634.16;5022391;28;20025;-70
2020/12/07 01:42:44;;;;;;;70.72;22.75;;;;;;;10.31;57.56;99633.63;5022158;28;20121;-71
2020/12/07 01:45:10;;;;;;;60.50;21.63;;;;;;;10.34;57.60;99623.22;5022831;28;20057;-71
2020/12/07 01:47:36;;;;;;;68.50;23.75;;;;;;;10.01;58.25;99620.69;5006888;28;20042;-71
2020/12/07 01:50:07;;;;;;;59.60;20.00;;;;;;;10.02;58.36;99613.78;5022802;28;20033;-73
2020/12/07 01:52:33;;;;;;;68.32;23.85;;;;;;;9.97;58.09;99598.44;5021790;28;20143;-71
2020/12/07 01:55:01;;;;;;;75.93;23.70;;;;;;;10.12;57.72;99587.66;5020854;28;20038;-69
2020/12/07 01:57:38;;;;;;;70.10;23.15;;;;;;;10.16;57.51;99584.13;5021601;28;20465;-72
2020/12/07 02:00:06;;;;;;;65.25;22.63;;;;;;;9.98;58.05;99584.66;5024025;28;20223;-72
2020/12/07 02:02:44;;;;;;;66.50;21.35;;;;;;;10.22;57.69;99582.22;5019718;28;20057;-73
2020/12/07 02:05:12;;;;;;;74.20;22.85;;;;;;;10.13;57.85;99575.59;5020904;28;20087;-74
2020/12/07 02:07:37;;;;;;;75.78;23.95;;;;;;;10.27;57.40;99580.34;5005264;28;20060;-74
2020/12/07 02:10:03;;;;;;;68.63;22.65;;;;;;;10.27;57.58;99576.03;5020600;28;20112;-72
2020/12/07 02:12:31;;;;;;;73.78;23.58;;;;;;;10.22;57.46;99561.56;5007006;28;20037;-74
2020/12/07 02:14:57;;;;;;;65.28;22.17;;;;;;;10.32;57.38;99557.88;5021232;28;20022;-70
2020/12/07 02:17:22;;;;;;;63.63;24.38;;;;;;;10.23;57.17;99551.22;5018919;28;20503;-72
2020/12/07 02:19:49;;;;;;;71.47;23.92;;;;;;;10.09;57.20;99554.22;5018583;28;20018;-73
2020/12/07 02:22:15;;;;;;;84.68;25.58;;;;;;;10.17;57.55;99543.63;5023576;28;20022;-72
2020/12/07 02:25:04;;;;;;;72.75;25.45;;;;;;;10.09;57.73;99543.03;5020633;28;20048;-72
2020/12/07 02:27:32;;;;;;;74.40;25.23;;;;;;;10.10;57.36;99542.97;5019820;28;20026;-72
2020/12/07 02:29:58;;;;;;;68.18;23.48;;;;;;;10.12;57.58;99538.63;5017456;28;20037;-72
2020/12/07 02:32:23;;;;;;;70.53;25.05;;;;;;;10.06;57.63;99540.53;5017828;28;20025;-72
2020/12/07 02:35:01;;;;;;;72.38;23.48;;;;;;;10.03;57.88;99544.06;5020335;28;20022;-73
2020/12/07 02:37:33;;;;;;;74.87;24.33;;;;;;;10.19;57.51;99552.19;5020536;28;20092;-71
2020/12/07 02:40:00;;;;;;;72.15;23.30;;;;;;;10.10;57.52;99553.31;5023889;28;20040;-71
2020/12/07 02:42:27;;;;;;;79.40;23.92;;;;;;;9.95;57.96;99546.03;5026044;28;20036;-76
2020/12/07 02:44:53;;;;;;;74.63;23.70;;;;;;;10.04;57.40;99548.31;5012857;28;20029;-77
2020/12/07 02:47:22;;;;;;;75.78;24.02;;;;;;;10.29;56.81;99534.69;5027747;28;20033;-77
2020/12/07 02:49:50;;;;;;;73.90;22.38;;;;;;;10.27;57.04;99524.41;5029997;28;20036;-76
2020/12/07 02:52:18;;;;;;;85.13;24.88;;;;;;;10.28;57.09;99515.75;5028029;28;20029;-77
2020/12/07 02:54:44;;;;;;;78.25;24.80;;;;;;;10.36;56.85;99497.47;5015686;28;20038;-76
2020/12/07 02:57:20;;;;;;;76.32;24.27;;;;;;;10.29;57.09;99486.50;5024748;28;20410;-76
2020/12/07 02:59:48;;;;;;;82.30;27.25;;;;;;;10.32;56.83;99481.22;5012104;28;20017;-74
2020/12/07 03:02:14;;;;;;;74.90;23.55;;;;;;;10.28;56.83;99471.00;5042441;28;20554;-76
2020/12/07 03:04:40;;;;;;;75.03;23.25;;;;;;;10.17;57.19;99476.50;5026997;28;20025;-76
2020/12/07 03:07:07;;;;;;;72.22;23.83;;;;;;;10.33;57.00;99487.22;5013908;28;20819;-77
2020/12/07 03:09:34;;;;;;;86.22;25.73;;;;;;;10.28;56.98;99486.50;5033503;28;20052;-73
2020/12/07 03:12:00;;;;;;;84.25;25.05;;;;;;;10.12;57.17;99484.41;5038780;28;21029;-76
2020/12/07 03:14:27;;;;;;;73.18;25.10;;;;;;;9.92;58.20;99484.19;5039891;28;20029;-75
2020/12/07 03:16:53;;;;;;;82.80;26.02;;;;;;;9.71;59.02;99489.09;5020031;28;20099;-77
2020/12/07 03:19:19;;;;;;;84.25;24.90;;;;;;;9.67;58.75;99482.34;5013516;28;20029;-76
2020/12/07 03:21:46;;;;;;;71.50;20.58;;;;;;;9.74;58.79;99481.25;5015425;28;20059;-76
2020/12/07 03:24:14;;;;;;;72.75;23.80;;;;;;;9.63;59.27;99483.31;5029307;28;20109;-75
2020/12/07 03:26:41;;;;;;;82.88;23.98;;;;;;;9.49;59.84;99490.63;5029691;28;20248;-75
2020/12/07 03:29:10;;;;;;;83.10;25.67;;;;;;;9.54;59.29;99491.31;5010356;28;20104;-76
2020/12/07 03:31:41;;;;;;;84.97;24.95;;;;;;;9.64;58.93;99497.03;5026603;28;20039;-77
2020/12/07 03:34:10;;;;;;;70.35;22.70;;;;;;;9.68;59.10;99499.50;5024546;28;20715;-77
2020/12/07 03:36:37;;;;;;;82.68;25.20;;;;;;;9.59;59.31;99496.34;5027410;28;20044;-75
2020/12/07 03:39:03;;;;;;;76.28;20.48;;;;;;;9.60;59.24;99511.78;5031957;28;20033;-76
2020/12/07 03:41:30;;;;;;;71.22;23.02;;;;;;;9.54;59.80;99509.38;5030571;28;20101;-76
2020/12/07 03:43:56;;;;;;;77.82;21.05;;;;;;;9.54;59.46;99507.63;5012565;28;20045;-76
2020/12/07 03:46:26;;;;;;;74.50;23.25;;;;;;;9.40;60.03;99494.28;5012201;28;20025;-77
2020/12/07 03:48:52;;;;;;;68.18;21.90;;;;;;;9.45;59.78;99489.00;5013796;28;20033;-77
2020/12/07 03:51:18;;;;;;;69.10;21.08;;;;;;;9.48;59.76;99481.16;5031229;28;20140;-76
2020/12/07 03:53:46;;;;;;;71.70;22.75;;;;;;;9.29;60.21;99478.28;5029304;28;20069;-76
2020/12/07 03:56:12;;;;;;;69.38;21.50;;;;;;;9.29;60.48;99481.69;5027249;28;20084;-77
2020/12/07 03:58:40;;;;;;;59.08;19.80;;;;;;;9.42;59.91;99473.59;5009118;28;20032;-73
2020/12/07 04:01:09;;;;;;;65.80;20.80;;;;;;;9.06;60.69;99469.41;5021535;28;20148;-74
2020/12/07 04:03:37;;;;;;;55.28;21.15;;;;;;;9.26;60.48;99471.44;5023409;28;20037;-73
2020/12/07 04:06:13;;;;;;;56.10;20.73;;;;;;;9.24;60.21;99491.31;5022495;28;20037;-73
2020/12/07 04:08:39;;;;;;;64.72;23.25;;;;;;;9.41;59.55;99487.41;5026575;28;20096;-77
2020/12/07 04:11:04;;;;;;;59.35;21.40;;;;;;;9.42;59.79;99489.06;5025966;28;20037;-78
2020/12/07 04:13:30;;;;;;;51.35;19.25;;;;;;;9.43;59.57;99488.19;5026664;28;20044;-78
2020/12/07 04:15:55;;;;;;;57.53;20.45;;;;;;;9.39;59.89;99478.84;5029227;28;20037;-75
2020/12/07 04:18:21;;;;;;;63.40;20.92;;;;;;;9.45;59.82;99487.25;5025725;28;20033;-75
2020/12/07 04:20:46;;;;;;;54.20;19.45;;;;;;;9.34;59.89;99490.13;5024855;28;20030;-73
2020/12/07 04:23:12;;;;;;;50.83;19.50;;;;;;;9.39;60.06;99489.16;5021779;28;20491;-72
2020/12/07 04:25:37;;;;;;;57.78;20.05;;;;;;;9.39;60.13;99486.59;5017647;28;20021;-73
2020/12/07 04:28:03;;;;;;;51.83;20.30;;;;;;;9.34;60.07;99489.31;5023470;28;20041;-73
2020/12/07 04:30:28;;;;;;;49.75;18.65;;;;;;;9.27;60.36;99483.47;5025443;28;20145;-73
2020/12/07 04:32:54;;;;;;;49.03;17.67;;;;;;;9.45;59.62;99466.63;5021028;28;20029;-74
2020/12/07 04:35:19;;;;;;;53.33;20.52;;;;;;;9.48;59.67;99452.81;5007797;28;20085;-74
2020/12/07 04:37:45;;;;;;;46.25;17.65;;;;;;;9.41;59.20;99441.81;5022640;28;20040;-72
2020/12/07 04:40:11;;;;;;;47.38;18.58;;;;;;;9.31;59.92;99443.81;5022445;28;20037;-72
2020/12/07 04:42:39;;;;;;;47.78;16.85;;;;;;;9.01;60.71;99437.78;5021350;28;20052;-72
2020/12/07 04:45:05;;;;;;;42.65;16.75;;;;;;;9.28;59.74;99438.75;5020785;28;20040;-72
2020/12/07 04:47:33;;;;;;;51.75;19.65;;;;;;;9.32;59.80;99437.78;5019119;28;20025;-73
2020/12/07 04:50:04;;;;;;;48.35;17.35;;;;;;;9.30;59.76;99438.72;5020851;28;20030;-71
2020/12/07 04:52:31;;;;;;;31.95;13.23;;;;;;;9.18;60.26;99437.34;5023037;28;20497;-74
2020/12/07 04:54:58;;;;;;;41.97;17.02;;;;;;;9.26;59.94;99447.41;5017779;28;20702;-72
2020/12/07 04:57:24;;;;;;;42.17;16.73;;;;;;;9.22;59.91;99428.63;5023421;28;20037;-72
2020/12/07 04:59:49;;;;;;;44.88;17.88;;;;;;;9.24;60.06;99419.13;5022950;28;20029;-72
2020/12/07 05:02:15;;;;;;;45.80;18.58;;;;;;;9.36;59.68;99423.06;5021975;28;20036;-74
2020/12/07 05:04:41;;;;;;;41.90;16.75;;;;;;;9.16;60.29;99433.94;5022188;28;20067;-74
2020/12/07 05:07:10;;;;;;;40.72;16.48;;;;;;;9.06;60.64;99442.81;5022067;28;20041;-74
2020/12/07 05:09:37;;;;;;;45.03;16.88;;;;;;;8.97;60.88;99440.50;5009295;28;20518;-75
2020/12/07 05:12:40;;;;;;;39.65;15.48;;;;;;;9.18;59.96;99437.34;5026079;28;20029;-76
2020/12/07 05:14:56;;;;;;;43.42;17.10;;;;;;;9.26;59.73;99435.34;5024819;28;20051;-77
2020/12/07 05:17:22;;;;;;;34.55;14.75;;;;;;;9.08;60.59;99434.16;5007548;28;20115;-75
2020/12/07 05:19:49;;;;;;;42.13;15.65;;;;;;;9.09;60.43;99445.31;5022059;28;20029;-77
2020/12/07 05:22:16;;;;;;;34.47;14.75;;;;;;;9.26;60.03;99453.41;5026010;28;20061;-75
2020/12/07 05:24:48;;;;;;;36.15;14.43;;;;;;;9.18;60.17;99446.81;5027299;28;20021;-76
2020/12/07 05:27:17;;;;;;;40.40;14.85;;;;;;;9.27;60.07;99447.38;5020444;28;20509;-76
2020/12/07 05:30:01;;;;;;;29.70;13.40;;;;;;;9.08;60.25;99441.88;5025409;28;20517;-76
2020/12/07 05:32:34;;;;;;;31.13;13.15;;;;;;;9.27;59.87;99437.06;5023546;28;20033;-75
2020/12/07 05:35:01;;;;;;;31.35;13.68;;;;;;;9.15;60.03;99432.25;5020479;28;20088;-76
2020/12/07 05:37:33;;;;;;;32.55;13.52;;;;;;;8.97;60.86;99435.34;5010658;28;20064;-76
2020/12/07 05:40:05;;;;;;;30.15;13.10;;;;;;;9.07;60.72;99434.22;5020714;28;20094;-76
2020/12/07 05:42:31;;;;;;;32.05;14.02;;;;;;;9.15;60.09;99429.66;5025453;28;20094;-76
2020/12/07 05:44:58;;;;;;;29.25;13.23;;;;;;;9.16;60.37;99425.38;5026558;28;20042;-76
2020/12/07 05:47:24;;;;;;;28.50;12.77;;;;;;;9.31;59.80;99425.78;5006244;28;20055;-72
2020/12/07 05:49:53;;;;;;;25.73;12.77;;;;;;;9.28;59.90;99415.53;5009081;28;20088;-73
2020/12/07 05:52:26;;;;;;;31.27;12.18;;;;;;;9.39;59.45;99424.72;5022914;28;20029;-73
2020/12/07 05:54:53;;;;;;;35.20;12.27;;;;;;;9.46;59.47;99421.06;5019825;28;20030;-72
2020/12/07 05:57:26;;;;;;;32.35;12.50;;;;;;;9.57;58.93;99408.69;5023065;28;20038;-75
2020/12/07 05:59:55;;;;;;;25.05;11.50;;;;;;;9.56;59.10;99396.69;5008907;28;20053;-74
2020/12/07 06:02:21;;;;;;;28.33;10.95;;;;;;;9.60;58.81;99402.56;5023043;28;20502;-71
2020/12/07 06:04:47;;;;;;;33.28;12.70;;;;;;;9.68;59.05;99391.13;5021206;28;20502;-72
2020/12/07 06:07:15;;;;;;;27.50;12.02;;;;;;;9.69;58.60;99403.16;5019418;28;20036;-71
2020/12/07 06:09:43;;;;;;;28.60;11.30;;;;;;;9.63;59.18;99407.66;5019384;28;20033;-71
2020/12/07 06:12:21;;;;;;;24.88;10.82;;;;;;;9.68;58.81;99413.50;5021173;28;20120;-70
2020/12/07 06:14:47;;;;;;;22.73;9.50;;;;;;;9.76;58.51;99414.13;5021199;28;20064;-70
2020/12/07 06:17:23;;;;;;;20.88;9.57;;;;;;;9.92;58.12;99405.00;5026370;28;20037;-70
2020/12/07 06:19:52;;;;;;;17.83;8.52;;;;;;;9.82;58.42;99403.59;5024195;28;20033;-70
2020/12/07 06:22:22;;;;;;;22.92;9.20;;;;;;;9.80;58.31;99401.97;5023670;28;20037;-70
2020/12/07 06:24:51;;;;;;;21.30;9.68;;;;;;;9.88;58.38;99387.09;5023437;28;20767;-71
2020/12/07 06:27:17;;;;;;;20.13;9.73;;;;;;;9.71;58.72;99375.56;5023746;28;20034;-71
2020/12/07 06:30:05;;;;;;;18.58;8.48;;;;;;;9.77;58.46;99370.19;5038395;28;20041;-72
2020/12/07 06:32:48;;;;;;;20.88;8.93;;;;;;;9.84;58.32;99375.16;5025277;28;20029;-71
2020/12/07 06:35:14;;;;;;;22.48;9.50;;;;;;;9.82;58.33;99393.28;5022805;28;20036;-73
2020/12/07 06:37:45;;;;;;;17.38;9.45;;;;;;;9.81;58.49;99380.44;5022709;28;20030;-72
2020/12/07 06:40:12;;;;;;;19.50;9.15;;;;;;;9.68;58.86;99387.72;5023351;28;20032;-72
2020/12/07 06:42:40;;;;;;;21.35;9.65;;;;;;;9.70;58.67;99388.50;5025845;28;20068;-72
2020/12/07 06:45:08;;;;;;;19.45;9.38;;;;;;;9.72;58.62;99405.63;5020152;28;20029;-72
2020/12/07 06:47:33;;;;;;;26.13;10.77;;;;;;;9.61;58.93;99405.13;5021438;28;20029;-73
2020/12/07 06:50:12;;;;;;;18.83;8.52;;;;;;;9.69;58.90;99408.31;5022406;28;20033;-72
2020/12/07 06:52:41;;;;;;;22.23;8.23;;;;;;;9.64;58.57;99402.44;5023373;28;20042;-71
2020/12/07 06:55:12;;;;;;;20.55;9.15;;;;;;;9.16;60.23;99403.00;5020343;28;20030;-73
2020/12/07 06:57:47;;;;;;;18.58;8.65;;;;;;;9.45;59.55;99414.22;5023585;28;20039;-73
2020/12/07 07:00:13;;;;;;;20.60;9.10;;;;;;;9.50;59.34;99402.03;5024330;28;20033;-72
2020/12/07 07:02:47;;;;;;;21.17;7.30;;;;;;;9.50;59.19;99391.72;5023975;28;20601;-72
2020/12/07 07:05:14;;;;;;;14.00;7.22;;;;;;;9.42;59.49;99402.25;5024246;28;20025;-72
2020/12/07 07:07:40;;;;;;;19.40;8.57;;;;;;;9.44;59.41;99404.78;5024577;28;20568;-74
2020/12/07 07:10:08;;;;;;;17.08;7.80;;;;;;;9.37;59.63;99401.53;5025800;28;20041;-72
2020/12/07 07:12:35;;;;;;;15.55;7.15;;;;;;;9.34;59.43;99396.47;5024930;28;20052;-72
2020/12/07 07:15:01;;;;;;;21.27;8.55;;;;;;;9.51;59.28;99408.84;5007053;28;20662;-74
2020/12/07 07:17:28;;;;;;;18.55;8.98;;;;;;;9.49;59.47;99406.34;5022411;28;20037;-73
2020/12/07 07:19:57;;;;;;;17.00;7.88;;;;;;;9.35;59.79;99409.34;5023464;28;20172;-73
2020/12/07 07:22:24;;;;;;;20.83;7.65;;;;;;;9.27;60.04;99413.88;5021873;28;20033;-73
2020/12/07 07:24:56;;;;;;;20.05;9.45;;;;;;;9.38;59.55;99412.69;5023062;28;20033;-75
2020/12/07 07:30:06;;;;;;;17.63;7.88;;;;;;;9.31;59.60;99400.00;5018562;28;20079;-76
2020/12/07 07:32:33;;;;;;;20.00;8.55;;;;;;;9.35;59.77;99383.56;5025340;28;20029;-72
2020/12/07 07:34:58;;;;;;;20.55;8.63;;;;;;;9.41;59.40;99381.66;5022391;28;20190;-73
2020/12/07 07:37:24;;;;;;;14.98;8.20;;;;;;;9.43;59.64;99392.78;5020783;28;20557;-75
2020/12/07 07:39:58;;;;;;;23.48;8.68;;;;;;;9.30;59.61;99392.28;5023329;28;20036;-73
2020/12/07 07:42:24;;;;;;;16.77;7.25;;;;;;;9.39;59.59;99404.06;5025639;28;20207;-74
2020/12/07 07:44:50;;;;;;;19.85;8.65;;;;;;;9.21;60.04;99395.97;5008904;28;20030;-74
2020/12/07 07:47:29;;;;;;;19.98;8.65;;;;;;;9.16;60.31;99407.34;5022486;28;20060;-75
2020/12/07 07:50:17;;;;;;;24.08;9.98;;;;;;;9.24;59.92;99413.97;5023660;28;20038;-75
2020/12/07 08:17:50;;;;;;;18.25;9.48;;;;;;;9.10;60.54;99424.63;5023878;28;20033;-75
2020/12/07 08:20:18;;;;;;;25.13;10.85;;;;;;;8.96;60.96;99415.63;5023473;28;20037;-77
2020/12/07 08:23:05;;;;;;;26.98;10.23;;;;;;;9.02;61.08;99421.44;5022671;28;20038;-75
2020/12/07 08:25:40;;;;;;;23.52;9.98;;;;;;;9.03;60.79;99417.13;5022686;28;20041;-74
2020/12/07 08:28:37;;;;;;;27.20;11.05;;;;;;;8.91;61.27;99408.03;5007832;28;20049;-74
2020/12/07 08:31:03;;;;;;;22.85;10.50;;;;;;;9.26;60.29;99408.75;4995422;28;20482;-75
2020/12/07 08:33:30;;;;;;;18.42;9.70;;;;;;;9.24;60.30;99408.81;5023375;28;20036;-74
2020/12/07 08:35:56;;;;;;;27.95;11.98;;;;;;;9.05;60.94;99402.47;5024805;28;20036;-74
2020/12/07 08:38:31;;;;;;;24.25;10.20;;;;;;;8.96;61.02;99411.31;5024077;28;20563;-73
2020/12/07 08:41:15;;;;;;;27.67;10.52;;;;;;;9.14;60.55;99420.25;5023050;28;20355;-74
2020/12/07 08:43:46;;;;;;;29.95;10.25;;;;;;;9.10;60.76;99403.19;5018259;28;20040;-75
2020/12/07 08:46:15;;;;;;;22.15;10.20;;;;;;;9.30;60.09;99412.91;5017736;28;21594;-75
2020/12/07 08:48:41;;;;;;;28.48;10.00;;;;;;;9.46;59.83;99415.88;5005745;28;20238;-75
2020/12/07 08:51:08;;;;;;;22.58;10.23;;;;;;;9.10;60.59;99421.22;5023577;28;20099;-75
2020/12/07 08:53:34;;;;;;;28.08;12.13;;;;;;;9.15;60.44;99427.09;5022979;28;20033;-75
2020/12/07 08:55:59;;;;;;;22.15;9.65;;;;;;;9.44;60.00;99421.09;5029006;28;20030;-76
2020/12/07 08:58:25;;;;;;;20.33;10.30;;;;;;;9.09;60.53;99424.69;5030860;28;20034;-74
2020/12/07 09:00:50;;;;;;;20.42;9.55;;;;;;;9.03;60.87;99423.13;5026581;28;20026;-75
2020/12/07 09:03:16;;;;;;;23.15;10.52;;;;;;;9.31;60.14;99406.88;5022630;28;20029;-73
2020/12/07 09:05:41;;;;;;;24.02;10.57;;;;;;;9.18;60.25;99401.25;5024187;28;20025;-75
2020/12/07 09:08:07;;;;;;;23.23;8.95;;;;;;;9.34;60.05;99401.63;5019751;28;20502;-74
2020/12/07 09:10:36;;;;;;;23.42;10.48;;;;;;;9.43;59.58;99400.53;5020952;28;20078;-74
2020/12/07 09:13:03;;;;;;;19.73;9.63;;;;;;;9.07;60.54;99403.28;5018150;28;20525;-74
2020/12/07 09:15:30;;;;;;;23.90;9.93;;;;;;;9.33;59.93;99400.78;5021045;28;20390;-74
2020/12/07 09:17:55;;;;;;;23.30;9.63;;;;;;;9.46;59.30;99405.56;5003172;28;20045;-74
2020/12/07 09:20:21;;;;;;;23.40;10.07;;;;;;;9.37;59.68;99413.59;5021323;28;20061;-74
2020/12/07 09:22:47;;;;;;;29.52;10.55;;;;;;;9.22;60.15;99415.75;5019302;28;20044;-73
2020/12/07 09:25:12;;;;;;;24.23;10.63;;;;;;;9.06;60.79;99409.31;5001368;28;20076;-74
2020/12/07 09:27:38;;;;;;;22.02;10.52;;;;;;;9.12;60.19;99433.19;5017198;28;20073;-74
2020/12/07 09:30:05;;;;;;;19.83;8.98;;;;;;;9.14;60.14;99433.16;5022324;28;20034;-74
2020/12/07 09:32:30;;;;;;;19.13;8.23;;;;;;;8.88;60.92;99455.31;5018966;28;20029;-74
2020/12/07 09:34:56;;;;;;;17.98;8.48;;;;;;;9.02;60.11;99457.53;5017870;28;20343;-74
2020/12/07 09:37:21;;;;;;;16.25;8.35;;;;;;;8.80;60.80;99466.72;5019170;28;20033;-73
2020/12/07 09:39:46;;;;;;;14.85;6.88;;;;;;;9.05;60.07;99451.44;5021081;28;20033;-74
2020/12/07 09:42:12;;;;;;;18.00;8.23;;;;;;;8.87;60.48;99453.63;5041526;28;20059;-75
2020/12/07 09:44:37;;;;;;;16.02;8.18;;;;;;;9.02;60.02;99448.94;5003707;28;20068;-75
2020/12/07 09:47:03;;;;;;;12.57;6.72;;;;;;;8.85;60.30;99455.41;5019036;28;20037;-75
2020/12/07 09:49:29;;;;;;;14.55;7.45;;;;;;;9.20;59.76;99442.41;5004518;28;20049;-76
2020/12/07 09:51:54;;;;;;;15.68;6.78;;;;;;;9.31;59.37;99437.81;5020358;28;20536;-74
2020/12/07 09:54:20;;;;;;;12.63;6.18;;;;;;;9.14;59.88;99440.88;5020871;28;20076;-74
2020/12/07 09:56:45;;;;;;;12.05;7.00;;;;;;;9.44;58.73;99458.94;5016479;28;20052;-75
2020/12/07 09:59:11;;;;;;;13.70;6.95;;;;;;;9.40;58.79;99449.59;5021079;28;20037;-75
2020/12/07 10:01:36;;;;;;;13.13;7.05;;;;;;;9.42;58.68;99447.81;5020834;28;20069;-74
2020/12/07 10:04:02;;;;;;;11.98;6.50;;;;;;;9.53;58.41;99435.44;5020944;28;20030;-73
2020/12/07 10:06:29;;;;;;;8.88;5.35;;;;;;;9.37;58.64;99445.38;5021321;28;20045;-74
2020/12/07 10:08:54;;;;;;;7.80;4.63;;;;;;;9.24;58.79;99451.75;5017292;28;20041;-75
2020/12/07 10:11:20;;;;;;;7.93;3.45;;;;;;;9.30;58.46;99467.06;5020836;28;20033;-75
2020/12/07 10:13:48;;;;;;;7.07;3.65;;;;;;;8.94;59.35;99468.03;5019789;28;20513;-75
2020/12/07 10:16:13;;;;;;;6.93;3.75;;;;;;;9.51;57.98;99437.22;5018107;28;20037;-74
2020/12/07 10:18:40;;;;;;;5.38;3.45;;;;;;;9.32;58.47;99430.03;5018525;28;20068;-75
2020/12/07 10:21:06;;;;;;;5.28;3.55;;;;;;;9.44;58.13;99425.41;5021307;28;20029;-73
2020/12/07 10:23:31;;;;;;;6.72;3.63;;;;;;;9.48;57.91;99432.16;5003334;28;20260;-74
2020/12/07 10:25:57;;;;;;;5.90;3.22;;;;;;;9.54;58.14;99439.72;5019123;28;20038;-74
2020/12/07 10:28:22;;;;;;;4.50;2.55;;;;;;;9.71;57.33;99452.09;5005278;28;20030;-75
2020/12/07 10:30:48;;;;;;;5.88;2.35;;;;;;;9.61;57.56;99451.56;5018612;28;20030;-75
2020/12/07 10:33:13;;;;;;;7.93;2.45;;;;;;;9.58;58.16;99454.22;5002612;28;20383;-76
2020/12/07 10:35:39;;;;;;;4.85;2.88;;;;;;;9.52;58.01;99441.50;5018618;28;20065;-74
2020/12/07 10:38:07;;;;;;;6.95;3.13;;;;;;;9.20;58.63;99437.25;5019765;28;20510;-75
2020/12/07 10:40:32;;;;;;;4.65;3.13;;;;;;;9.27;58.80;99425.91;5004659;28;20032;-75
2020/12/07 10:42:58;;;;;;;6.28;3.33;;;;;;;9.39;58.56;99425.53;5002090;28;20401;-76
2020/12/07 10:45:23;;;;;;;4.75;3.60;;;;;;;9.26;58.78;99409.56;5018506;28;20025;-74
2020/12/07 10:47:51;;;;;;;6.45;2.95;;;;;;;9.19;59.05;99408.06;5019578;28;20405;-75
2020/12/07 10:50:17;;;;;;;5.40;3.58;;;;;;;9.49;58.59;99415.81;5006195;28;20030;-74
2020/12/07 10:52:42;;;;;;;5.90;3.42;;;;;;;9.39;58.86;99415.22;5016883;28;20029;-77
2020/12/07 10:55:08;;;;;;;8.18;3.35;;;;;;;9.67;58.12;99411.84;5015795;28;20079;-75
2020/12/07 10:57:33;;;;;;;6.95;3.88;;;;;;;9.63;57.99;99411.06;5003056;28;20029;-75
2020/12/07 10:59:59;;;;;;;5.03;3.17;;;;;;;9.55;58.40;99413.91;5021408;28;20413;-75
2020/12/07 11:02:26;;;;;;;5.63;3.53;;;;;;;9.24;59.10;99411.38;5023609;28;20033;-76
2020/12/07 11:04:52;;;;;;;8.07;4.32;;;;;;;9.40;58.69;99400.59;5024113;28;20042;-76
2020/12/07 11:07:18;;;;;;;5.82;4.50;;;;;;;9.60;58.44;99413.75;5022968;28;20038;-75
2020/12/07 11:09:44;;;;;;;6.30;3.40;;;;;;;9.24;59.38;99425.97;5022466;28;20491;-74
2020/12/07 11:12:15;;;;;;;5.35;3.95;;;;;;;9.32;59.10;99426.63;5002572;28;20043;-74
2020/12/07 11:14:41;;;;;;;7.13;4.50;;;;;;;9.15;60.04;99432.25;5023277;28;20037;-75
2020/12/07 11:17:08;;;;;;;7.13;4.30;;;;;;;9.33;59.63;99441.19;5025965;28;20045;-75
2020/12/07 11:19:34;;;;;;;6.25;3.75;;;;;;;9.47;59.32;99438.22;5010199;28;20033;-76
2020/12/07 11:22:00;;;;;;;7.45;4.05;;;;;;;9.38;59.78;99443.63;5018787;28;20555;-75
2020/12/07 11:24:25;;;;;;;8.02;4.53;;;;;;;9.55;59.33;99436.25;5005607;28;20037;-75
2020/12/07 11:26:50;;;;;;;6.80;4.05;;;;;;;9.44;59.53;99427.97;5017904;28;20514;-75
2020/12/07 11:29:16;;;;;;;8.05;5.18;;;;;;;9.13;60.62;99434.00;5020482;28;20033;-75
2020/12/07 11:31:46;;;;;;;10.10;4.05;;;;;;;8.91;61.42;99429.47;5021398;28;20041;-76
2020/12/07 11:34:11;;;;;;;7.47;4.10;;;;;;;9.25;60.66;99423.38;5021323;28;20323;-75
2020/12/07 11:36:39;;;;;;;9.32;4.80;;;;;;;9.24;60.95;99429.44;5005751;28;20134;-75
2020/12/07 11:44:17;;;;;;;7.30;4.50;;;;;;;9.30;60.82;99436.97;5024799;28;20272;-73
2020/12/07 11:47:06;;;;;;;7.53;4.70;;;;;;;9.36;60.82;99433.38;5019698;28;20041;-74
2020/12/07 11:49:29;;;;;;;7.30;4.72;;;;;;;9.40;60.67;99431.53;5023829;28;20037;-75
2020/12/07 11:51:54;;;;;;;6.38;5.15;;;;;;;9.40;60.49;99436.69;5021052;28;20399;-74
2020/12/07 11:54:20;;;;;;;10.73;5.75;;;;;;;9.49;60.53;99436.44;5008363;28;20025;-76
2020/12/07 11:56:45;;;;;;;10.77;5.07;;;;;;;8.93;61.88;99429.44;5020793;28;20070;-75
2020/12/07 11:59:11;;;;;;;8.20;4.93;;;;;;;9.23;61.61;99425.16;5022253;28;20513;-73
2020/12/07 12:01:37;;;;;;;8.55;5.20;;;;;;;9.39;61.17;99419.53;5022547;28;20056;-75